createdAt,value
2018-03-06T00:01:13.031Z,53.9
2018-03-06T00:11:12.037Z,54.9
2018-03-06T00:21:11.251Z,55.8
2018-03-06T00:31:10.457Z,56.5
2018-03-06T00:41:09.656Z,56.8
2018-03-06T00:51:09.011Z,58.1
2018-03-06T01:01:08.042Z,58.5
2018-03-06T01:11:07.244Z,59.6
2018-03-06T01:21:06.447Z,60.3
2018-03-06T01:31:05.669Z,60.6
2018-03-06T01:41:04.872Z,60.4
2018-03-06T01:51:04.054Z,60.3
2018-03-06T02:01:03.256Z,60.1
2018-03-06T02:11:02.477Z,60.1
2018-03-06T02:21:01.680Z,59.9
2018-03-06T02:31:01.088Z,59.8
2018-03-06T02:41:00.075Z,59.8
2018-03-06T02:50:59.315Z,59.6
2018-03-06T03:00:58.489Z,59.6
2018-03-06T03:10:57.695Z,59.4
2018-03-06T03:20:56.870Z,59.4
2018-03-06T03:30:56.076Z,59.3
2018-03-06T03:40:55.273Z,58.1
2018-03-06T03:50:54.598Z,50.8
2018-03-06T04:00:53.745Z,48.7
2018-03-06T04:10:53.075Z,49.5
2018-03-06T04:20:52.134Z,47.9
2018-03-06T04:30:51.331Z,47.8
2018-03-06T04:40:50.560Z,48.8
2018-03-06T04:50:49.823Z,48.4
2018-03-06T05:00:48.956Z,49.6
2018-03-06T05:10:48.159Z,48.1
2018-03-06T05:20:47.365Z,49.3
2018-03-06T05:30:46.572Z,50
2018-03-06T05:40:45.795Z,51.1
2018-03-06T05:50:44.992Z,51.6
2018-03-06T06:00:44.200Z,51.4
2018-03-06T06:10:43.384Z,51.6
2018-03-06T06:20:42.584Z,51.4
2018-03-06T06:30:41.806Z,51.5
2018-03-06T06:40:40.987Z,51.4
2018-03-06T06:50:40.198Z,51.5
2018-03-06T07:00:39.395Z,51.5
2018-03-06T07:10:38.600Z,51.5
2018-03-06T07:20:37.844Z,51.5
2018-03-06T07:30:37.016Z,51.6
2018-03-06T07:40:36.220Z,52
2018-03-06T07:50:35.399Z,52.4
2018-03-06T08:00:34.645Z,52.9
2018-03-06T08:10:33.807Z,53.2
2018-03-06T08:20:33.006Z,53.6
2018-03-06T08:30:32.211Z,54
2018-03-06T08:40:31.424Z,54.3
2018-03-06T08:50:30.606Z,54.6
2018-03-06T09:00:29.807Z,54.8
2018-03-06T09:10:29.031Z,55.1
2018-03-06T09:20:28.209Z,55.6
2018-03-06T09:30:27.431Z,56.7
2018-03-06T09:40:26.646Z,58.1
2018-03-06T09:50:25.869Z,59.4
2018-03-06T10:00:25.013Z,60.7
2018-03-06T10:10:24.264Z,62
2018-03-06T10:20:23.414Z,63.2
2018-03-06T10:30:22.788Z,64.4
2018-03-06T10:40:21.816Z,65.6
2018-03-06T10:50:21.038Z,66.8
2018-03-06T11:00:20.220Z,67.9
2018-03-06T11:10:19.419Z,68.8
2018-03-06T11:20:18.619Z,69.4
2018-03-06T11:30:17.841Z,70
2018-03-06T11:40:17.022Z,70.3
2018-03-06T11:50:16.222Z,70.6
2018-03-06T12:00:15.490Z,70.8
2018-03-06T12:10:14.740Z,71
2018-03-06T12:20:13.920Z,71.2
2018-03-06T12:30:13.070Z,71.3
2018-03-06T12:40:12.271Z,71.4
2018-03-06T12:50:11.542Z,71.4
2018-03-06T13:00:10.715Z,71.4
2018-03-06T13:10:09.879Z,71.3
2018-03-06T13:20:09.073Z,71.3
2018-03-06T13:30:08.282Z,71.2
2018-03-06T13:40:07.494Z,71.1
2018-03-06T13:50:06.747Z,71
2018-03-06T14:00:05.893Z,70.9
2018-03-06T14:10:05.078Z,70.9
2018-03-06T14:20:04.275Z,70.9
2018-03-06T14:30:03.504Z,70.9
2018-03-06T14:40:02.685Z,70.8
2018-03-06T14:50:01.877Z,70.8
2018-03-06T15:00:01.107Z,70.7
2018-03-06T15:10:00.277Z,70.6
2018-03-06T15:19:59.528Z,70.4
2018-03-06T15:29:58.678Z,70.4
2018-03-06T15:39:57.880Z,70.3
2018-03-06T15:49:57.109Z,70.1
2018-03-06T15:59:56.288Z,69.8
2018-03-06T16:09:55.487Z,69.6
2018-03-06T16:19:54.689Z,69.3
2018-03-06T16:29:53.918Z,68.4
2018-03-06T16:39:53.092Z,68
2018-03-06T16:49:52.326Z,67.7
2018-03-06T16:59:51.499Z,67.3
2018-03-06T17:09:50.700Z,66.6
2018-03-06T17:19:49.951Z,65.5
2018-03-06T17:29:49.110Z,64.7
2018-03-06T17:39:48.346Z,63.9
2018-03-06T17:49:47.605Z,63.6
2018-03-06T17:59:46.897Z,62.9
2018-03-06T18:09:45.921Z,62.4
2018-03-06T18:19:45.180Z,62.1
2018-03-06T18:29:44.416Z,61.6
2018-03-06T18:39:43.593Z,61.3
2018-03-06T18:49:42.754Z,60.9
2018-03-06T18:59:41.954Z,60.1
2018-03-06T19:09:41.253Z,59.9
2018-03-06T19:19:40.382Z,58.2
2018-03-06T19:29:39.622Z,53.9
2018-03-06T19:39:38.819Z,48.6
2018-03-06T19:49:37.995Z,47.2
2018-03-06T19:59:37.205Z,47.3
2018-03-06T20:09:36.461Z,46.6
2018-03-06T20:19:35.642Z,46.3
2018-03-06T20:29:34.867Z,47.1
2018-03-06T20:39:34.049Z,48
2018-03-06T20:49:33.252Z,48.7
2018-03-06T20:59:32.476Z,49.4
2018-03-06T21:09:31.738Z,50.1
2018-03-06T21:19:30.888Z,50.7
2018-03-06T21:29:30.074Z,51.3
2018-03-06T21:39:29.278Z,51.9
2018-03-06T21:49:28.480Z,52.5
2018-03-06T21:59:27.681Z,53.1
2018-03-06T22:09:26.924Z,53.8
2018-03-06T22:19:26.088Z,54.4
2018-03-06T22:29:25.296Z,55.1
2018-03-06T22:39:24.499Z,55.6
2018-03-06T22:49:23.755Z,56.3
2018-03-06T22:59:22.972Z,56.8
2018-03-06T23:09:22.123Z,57.5
2018-03-06T23:19:21.315Z,58.2
2018-03-06T23:29:20.531Z,58.9
2018-03-06T23:39:19.716Z,59.6
2018-03-06T23:49:18.937Z,60.3
2018-03-06T23:59:18.120Z,60.5
